Time;durP1;ratioP1;P1;durP2;ratioP2;P2;SDS_P1;SDS_P2;PMS_P1;PMS_P2;Temp;Humidity;BMP_temperature;BMP_pressure;BME280_temperature;BME280_humidity;BME280_pressure;Samples;Min_cycle;Max_cycle;Signal;HPM_P1;HPM_P2
2023/01/13 00:01:16;;;;;;;;;;;;;;;8.57;61.59;101199.09;4978600;28;19918;-83
2023/01/13 00:04:01;;;;;;;;;;;;;;;8.71;61.32;101192.97;4973617;28;19914;-81
2023/01/13 00:06:45;;;;;;;;;;;;;;;8.86;60.82;101188.16;5000374;28;19922;-82
2023/01/13 00:09:30;;;;;;;;;;;;;;;9.15;60.08;101182.59;4998585;28;19914;-82
2023/01/13 00:12:14;;;;;;;;;;;;;;;9.26;59.25;101189.47;4981299;28;19918;-81
2023/01/13 00:14:59;;;;;;;;;;;;;;;9.20;59.33;101179.78;4966132;28;19914;-81
2023/01/13 00:17:43;;;;;;;;;;;;;;;8.54;61.27;101178.00;4952684;28;19914;-81
2023/01/13 00:20:27;;;;;;;;;;;;;;;8.33;62.59;101173.91;4965579;28;19914;-81
2023/01/13 00:23:12;;;;;;;;;;;;;;;8.09;63.10;101182.00;4976506;28;19923;-81
2023/01/13 00:25:57;;;;;;;;;;;;;;;8.45;61.61;101182.44;4954460;28;19915;-82
2023/01/13 00:28:42;;;;;;;;;;;;;;;8.74;60.39;101184.25;4954458;28;20371;-82
2023/01/13 00:31:28;;;;;;;;;;;;;;;8.96;59.98;101195.34;4951431;28;19918;-83
2023/01/13 00:34:12;;;;;;;;;;;;;;;8.99;59.52;101194.75;4946075;29;19914;-81
2023/01/13 00:36:56;;;;;;;;;;;;;;;8.96;59.68;101192.63;4954579;28;19915;-80
2023/01/13 00:39:41;;;;;;;;;;;;;;;8.90;59.40;101196.50;4978064;28;19922;-82
2023/01/13 00:45:28;;;;;;;;;;;;;;;8.98;59.47;101185.81;4961958;28;19914;-81
2023/01/13 00:48:13;;;;;;;;;;;;;;;8.76;59.59;101180.16;4968608;28;19918;-81
2023/01/13 00:51:03;;;;;;;;;;;;;;;8.87;59.97;101194.38;4957774;28;19914;-81
2023/01/13 00:53:49;;;;;;;;;;;;;;;8.93;59.78;101196.75;4966295;28;19915;-82
2023/01/13 00:56:34;;;;;;;;;;;;;;;8.82;59.64;101197.16;4970202;28;19922;-81
2023/01/13 00:59:18;;;;;;;;;;;;;;;8.80;59.73;101191.22;4953492;28;19915;-81
2023/01/13 01:02:02;;;;;;;;;;;;;;;8.62;60.19;101186.59;4966029;28;19914;-81
2023/01/13 01:04:47;;;;;;;;;;;;;;;8.14;62.18;101183.84;4984111;28;19914;-80
2023/01/13 01:07:31;;;;;;;;;;;;;;;8.59;60.48;101186.06;4954287;28;19919;-82
2023/01/13 01:10:16;;;;;;;;;;;;;;;8.91;59.31;101192.69;4954721;28;19914;-82
2023/01/13 01:13:00;;;;;;;;;;;;;;;8.66;59.47;101184.91;4981928;28;20302;-81
2023/01/13 01:15:46;;;;;;;;;;;;;;;8.16;61.63;101171.66;4982033;28;19914;-81
2023/01/13 01:18:32;;;;;;;;;;;;;;;8.20;62.12;101171.06;4978943;28;19915;-81
2023/01/13 01:21:17;;;;;;;;;;;;;;;8.51;61.14;101170.44;4957878;28;19926;-81
2023/01/13 01:24:02;;;;;;;;;;;;;;;8.61;60.61;101171.41;4950211;28;19914;-81
2023/01/13 01:26:47;;;;;;;;;;;;;;;8.54;61.06;101169.03;4971934;28;19927;-80
2023/01/13 01:29:31;;;;;;;;;;;;;;;8.16;62.72;101168.13;4978768;28;19914;-81
2023/01/13 01:32:16;;;;;;;;;;;;;;;8.44;61.74;101163.75;4981315;28;19914;-81
2023/01/13 01:35:00;;;;;;;;;;;;;;;8.49;61.46;101161.78;4961324;28;19915;-82
2023/01/13 01:37:44;;;;;;;;;;;;;;;8.82;60.06;101164.63;4952317;28;19918;-82
2023/01/13 01:40:29;;;;;;;;;;;;;;;8.71;60.32;101168.56;4968399;28;20009;-83
2023/01/13 01:46:18;;;;;;;;;;;;;;;8.90;59.34;101147.69;4980326;28;19918;-81
2023/01/13 01:49:12;;;;;;;;;;;;;;;8.71;60.17;101136.03;4978360;28;19918;-81
2023/01/13 01:52:02;;;;;;;;;;;;;;;8.65;60.53;101139.91;4953208;29;20378;-80
2023/01/13 01:54:50;;;;;;;;;;;;;;;8.71;60.37;101136.84;4984049;28;19914;-80
2023/01/13 01:57:37;;;;;;;;;;;;;;;8.69;59.81;101135.50;4972869;28;20389;-80
2023/01/13 02:00:22;;;;;;;;;;;;;;;8.29;60.88;101134.09;4968197;28;19914;-80
2023/01/13 02:03:08;;;;;;;;;;;;;;;8.20;62.16;101133.94;4969087;28;20297;-81
2023/01/13 02:05:52;;;;;;;;;;;;;;;8.37;61.94;101126.19;4969159;28;19914;-81
2023/01/13 02:08:39;;;;;;;;;;;;;;;8.43;61.45;101125.00;4962798;28;19919;-81
2023/01/13 02:14:35;;;;;;;;;;;;;;;8.28;61.90;101127.09;4982549;28;20313;-80
2023/01/13 02:17:19;;;;;;;;;;;;;;;8.25;61.26;101133.06;4983031;28;19915;-81
2023/01/13 02:20:22;;;;;;;;;;;;;;;8.28;62.07;101129.81;4977482;28;19914;-80
2023/01/13 02:23:07;;;;;;;;;;;;;;;8.43;60.71;101122.28;4960695;29;19914;-81
2023/01/13 02:26:05;;;;;;;;;;;;;;;8.48;60.66;101118.75;4958932;28;19918;-80
2023/01/13 02:32:18;;;;;;;;;;;;;;;8.39;60.79;101105.00;4962314;28;19916;-82
2023/01/13 02:35:18;;;;;;;;;;;;;;;8.29;61.33;101099.69;4959472;28;19915;-82
2023/01/13 02:38:04;;;;;;;;;;;;;;;8.05;62.83;101096.19;4949188;29;20370;-82
2023/01/13 02:44:05;;;;;;;;;;;;;;;8.20;62.81;101096.00;4962528;29;19914;-82
2023/01/13 02:44:06;;;;;;;;;;;;;;;8.05;63.57;101088.06;4962749;28;19918;-82
2023/01/13 02:46:59;;;;;;;;;;;;;;;8.22;63.13;101085.72;4964928;28;19918;-82
2023/01/13 02:49:46;;;;;;;;;;;;;;;8.35;61.68;101086.91;4975765;28;19914;-82
2023/01/13 02:52:36;;;;;;;;;;;;;;;7.98;63.09;101076.78;4979410;28;19914;-83
2023/01/13 02:55:27;;;;;;;;;;;;;;;7.70;63.25;101083.88;4960992;28;19914;-82
2023/01/13 02:58:14;;;;;;;;;;;;;;;8.03;62.13;101084.84;4981392;28;19914;-79
2023/01/13 03:00:59;;;;;;;;;;;;;;;8.13;61.87;101077.41;4956203;28;19914;-81
2023/01/13 03:03:43;;;;;;;;;;;;;;;8.03;62.33;101071.28;4981701;28;19914;-81
2023/01/13 03:06:33;;;;;;;;;;;;;;;7.78;62.99;101063.47;4942886;29;19914;-80
2023/01/13 03:09:21;;;;;;;;;;;;;;;7.76;63.79;101073.78;4954180;29;20303;-80
2023/01/13 03:12:13;;;;;;;;;;;;;;;7.91;63.67;101070.91;4969663;28;20325;-80
2023/01/13 03:15:12;;;;;;;;;;;;;;;7.97;62.93;101072.47;4971093;28;19915;-81
2023/01/13 03:18:06;;;;;;;;;;;;;;;7.95;62.66;101069.25;4976383;28;19914;-80
2023/01/13 03:21:11;;;;;;;;;;;;;;;7.94;62.96;101075.75;4955293;28;19933;-81
2023/01/13 03:24:04;;;;;;;;;;;;;;;7.98;62.78;101071.34;4978817;28;19918;-80
2023/01/13 03:27:09;;;;;;;;;;;;;;;8.05;61.61;101072.63;4948143;28;19914;-81
2023/01/13 03:29:57;;;;;;;;;;;;;;;8.20;61.16;101068.94;4969442;28;19914;-81
2023/01/13 03:32:44;;;;;;;;;;;;;;;7.98;61.68;101072.16;4966767;28;19914;-81
2023/01/13 03:35:34;;;;;;;;;;;;;;;7.85;62.28;101070.16;4978443;28;19915;-81
2023/01/13 03:38:32;;;;;;;;;;;;;;;7.68;62.94;101078.72;4943383;28;19914;-81
2023/01/13 03:41:21;;;;;;;;;;;;;;;7.95;61.63;101080.88;4955923;29;19914;-81
2023/01/13 03:44:23;;;;;;;;;;;;;;;7.80;61.56;101082.94;4960482;28;19914;-81
2023/01/13 03:47:26;;;;;;;;;;;;;;;7.95;62.12;101071.94;4958996;28;19915;-79
2023/01/13 03:50:19;;;;;;;;;;;;;;;7.90;61.71;101077.41;4958842;29;19914;-81
2023/01/13 03:53:09;;;;;;;;;;;;;;;8.26;60.37;101073.19;4952224;28;19914;-81
2023/01/13 03:55:58;;;;;;;;;;;;;;;8.05;61.05;101064.50;4973571;28;19914;-81
2023/01/13 03:58:46;;;;;;;;;;;;;;;8.09;62.04;101067.44;4961168;28;19914;-80
2023/01/13 04:01:38;;;;;;;;;;;;;;;8.09;61.05;101067.44;4948822;28;20402;-80
2023/01/13 04:04:25;;;;;;;;;;;;;;;7.68;62.53;101069.81;4955197;28;19919;-79
2023/01/13 04:07:19;;;;;;;;;;;;;;;7.71;63.85;101061.94;4976633;28;19914;-81
2023/01/13 04:10:06;;;;;;;;;;;;;;;7.67;63.12;101069.00;4969707;28;19914;-81
2023/01/13 04:13:01;;;;;;;;;;;;;;;7.83;62.25;101060.69;4946453;28;19918;-80
2023/01/13 04:15:45;;;;;;;;;;;;;;;7.69;61.88;101061.41;4972014;28;19914;-80
2023/01/13 04:18:30;;;;;;;;;;;;;;;7.74;62.02;101055.94;4958057;29;19919;-80
2023/01/13 04:21:15;;;;;;;;;;;;;;;7.70;61.76;101052.19;4971070;28;19922;-80
2023/01/13 04:24:00;;;;;;;;;;;;;;;7.77;62.97;101059.19;4976755;28;19922;-79
2023/01/13 04:26:44;;;;;;;;;;;;;;;7.74;61.68;101050.53;4976759;28;19918;-80
2023/01/13 04:29:28;;;;;;;;;;;;;;;7.94;61.23;101059.50;4952138;28;19918;-80
2023/01/13 04:32:13;;;;;;;;;;;;;;;7.84;61.19;101071.25;4963010;28;19914;-80
2023/01/13 04:34:57;;;;;;;;;;;;;;;7.90;60.92;101069.31;4978635;28;20294;-81
2023/01/13 04:37:42;;;;;;;;;;;;;;;7.84;60.60;101070.44;4959122;28;19915;-81
2023/01/13 04:40:26;;;;;;;;;;;;;;;7.73;61.97;101075.16;4952811;29;19915;-80
2023/01/13 04:43:11;;;;;;;;;;;;;;;7.97;61.95;101069.78;4956474;28;19915;-81
2023/01/13 04:45:55;;;;;;;;;;;;;;;7.97;62.37;101067.06;4957892;28;20322;-79
2023/01/13 04:48:40;;;;;;;;;;;;;;;7.87;61.60;101059.06;4959349;28;19919;-81
2023/01/13 04:51:25;;;;;;;;;;;;;;;7.64;62.02;101068.78;4958001;29;19914;-81
2023/01/13 04:54:10;;;;;;;;;;;;;;;7.52;62.96;101069.16;4959243;28;19914;-80
2023/01/13 04:56:54;;;;;;;;;;;;;;;7.71;62.31;101071.97;4957961;28;20386;-82
2023/01/13 04:59:40;;;;;;;;;;;;;;;7.79;62.11;101074.03;4945425;28;19933;-82
2023/01/13 05:02:25;;;;;;;;;;;;;;;7.80;61.98;101072.13;4977597;28;20634;-82
2023/01/13 05:05:10;;;;;;;;;;;;;;;7.64;62.30;101071.47;4949758;28;19914;-81
2023/01/13 05:07:54;;;;;;;;;;;;;;;7.54;62.79;101077.00;4962176;28;19918;-81
2023/01/13 05:10:39;;;;;;;;;;;;;;;7.42;63.55;101073.84;4979513;28;19922;-81
2023/01/13 05:19:32;;;;;;;;;;;;;;;7.93;62.46;101080.34;4940110;29;19922;-81
2023/01/13 05:25:20;;;;;;;;;;;;;;;6.96;65.22;101090.47;4975334;28;19914;-80
2023/01/13 05:28:06;;;;;;;;;;;;;;;6.94;65.26;101081.84;4958101;28;20300;-81
2023/01/13 05:30:51;;;;;;;;;;;;;;;6.87;65.94;101078.66;4960069;28;20382;-81
2023/01/13 05:33:35;;;;;;;;;;;;;;;6.96;66.06;101085.06;4960567;28;19915;-81
2023/01/13 05:36:20;;;;;;;;;;;;;;;7.37;64.97;101088.22;4968784;28;19918;-81
2023/01/13 05:39:04;;;;;;;;;;;;;;;7.45;64.16;101093.06;4958042;29;19914;-79
2023/01/13 05:44:52;;;;;;;;;;;;;;;7.72;62.54;101085.19;4944928;29;20394;-80
2023/01/13 05:47:36;;;;;;;;;;;;;;;7.14;65.21;101078.16;4954887;29;19922;-80
2023/01/13 05:50:21;;;;;;;;;;;;;;;7.41;65.19;101083.91;4971835;28;20302;-80
2023/01/13 05:53:06;;;;;;;;;;;;;;;7.75;63.61;101083.81;4966285;28;20313;-80
2023/01/13 05:55:51;;;;;;;;;;;;;;;7.97;62.73;101075.19;4961657;28;19919;-80
2023/01/13 05:58:35;;;;;;;;;;;;;;;8.18;62.12;101071.09;4962164;28;20306;-82
2023/01/13 06:01:20;;;;;;;;;;;;;;;8.25;61.21;101071.56;4958583;28;19914;-81
2023/01/13 06:04:04;;;;;;;;;;;;;;;8.02;62.76;101077.84;4962228;28;19915;-82
2023/01/13 06:06:48;;;;;;;;;;;;;;;7.75;62.77;101078.41;4953210;28;19915;-83
2023/01/13 06:09:33;;;;;;;;;;;;;;;7.91;62.07;101082.56;4956682;28;19918;-81
2023/01/13 06:12:17;;;;;;;;;;;;;;;7.77;62.94;101097.06;4973496;28;19913;-82
2023/01/13 06:15:02;;;;;;;;;;;;;;;7.82;62.65;101107.84;4954586;29;19914;-83
2023/01/13 06:17:46;;;;;;;;;;;;;;;7.72;62.64;101112.25;4976624;28;19919;-83
2023/01/13 06:20:31;;;;;;;;;;;;;;;7.55;63.09;101106.47;4960260;29;19915;-83
2023/01/13 06:23:15;;;;;;;;;;;;;;;7.41;63.72;101097.41;4959185;29;20394;-83
2023/01/13 06:26:10;;;;;;;;;;;;;;;6.95;64.63;101094.28;4976635;28;20290;-83
2023/01/13 06:28:54;;;;;;;;;;;;;;;6.87;65.72;101105.69;4965349;28;19918;-83
2023/01/13 06:31:39;;;;;;;;;;;;;;;7.26;64.36;101109.16;4959206;28;19922;-83
2023/01/13 06:34:24;;;;;;;;;;;;;;;7.58;63.18;101105.09;4944447;29;19915;-85
2023/01/13 06:37:10;;;;;;;;;;;;;;;7.11;65.60;101111.19;4962664;28;19914;-83
2023/01/13 06:39:57;;;;;;;;;;;;;;;7.06;65.74;101122.06;4957193;28;19914;-82
2023/01/13 06:45:50;;;;;;;;;;;;;;;7.57;66.63;101101.56;4980514;28;19914;-83
2023/01/13 06:48:35;;;;;;;;;;;;;;;7.47;64.93;101112.50;4988130;28;19918;-83
2023/01/13 06:51:19;;;;;;;;;;;;;;;7.70;68.15;101125.28;4977536;28;20366;-80
2023/01/13 06:54:04;;;;;;;;;;;;;;;6.68;66.38;101129.84;4960167;28;20302;-80
2023/01/13 06:56:48;;;;;;;;;;;;;;;6.52;67.44;101116.69;4962859;28;19915;-83
2023/01/13 06:59:34;;;;;;;;;;;;;;;6.43;66.70;101116.47;4963357;28;19915;-83
2023/01/13 07:02:18;;;;;;;;;;;;;;;6.45;67.74;101117.81;4962011;29;19914;-84
2023/01/13 07:05:03;;;;;;;;;;;;;;;6.79;68.11;101131.41;4980666;28;19915;-84
2023/01/13 07:07:47;;;;;;;;;;;;;;;6.55;67.28;101119.66;4956492;29;20302;-79
2023/01/13 07:10:32;;;;;;;;;;;;;;;6.37;68.21;101125.69;4959375;28;19918;-78
2023/01/13 07:16:19;;;;;;;;;;;;;;;6.65;66.90;101125.03;4956233;28;20373;-79
2023/01/13 07:19:03;;;;;;;;;;;;;;;6.91;65.82;101119.47;4956039;29;19914;-78
2023/01/13 07:21:51;;;;;;;;;;;;;;;6.79;66.34;101120.59;4960553;28;19914;-78
2023/01/13 07:24:36;;;;;;;;;;;;;;;6.87;67.72;101128.13;4958083;28;19918;-79
2023/01/13 07:27:20;;;;;;;;;;;;;;;7.10;67.46;101136.63;4956098;28;19914;-78
2023/01/13 07:30:05;;;;;;;;;;;;;;;6.79;67.50;101139.53;4956285;29;20278;-79
2023/01/13 07:32:49;;;;;;;;;;;;;;;6.90;67.79;101132.16;4961141;28;20322;-81
2023/01/13 07:35:34;;;;;;;;;;;;;;;6.86;67.64;101137.31;4956362;28;19914;-78
2023/01/13 07:38:18;;;;;;;;;;;;;;;7.19;66.36;101140.34;4958229;29;20377;-80
2023/01/13 07:43:30;;;;;;;;;;;;;;;7.17;65.58;101126.28;4950080;29;19915;-78
2023/01/13 07:44:09;;;;;;;;;;;;;;;7.07;65.52;101123.66;4952332;28;19914;-79
2023/01/13 07:46:53;;;;;;;;;;;;;;;7.08;66.19;101127.97;4963354;28;19914;-78
2023/01/13 07:49:38;;;;;;;;;;;;;;;7.16;65.91;101143.63;4946058;29;19923;-79
2023/01/13 07:52:23;;;;;;;;;;;;;;;7.01;66.67;101143.72;4943287;29;19923;-79
2023/01/13 07:55:08;;;;;;;;;;;;;;;6.79;67.04;101153.03;4959049;28;20398;-79
2023/01/13 07:57:52;;;;;;;;;;;;;;;7.10;66.85;101150.16;4971442;28;20293;-79
2023/01/13 08:00:37;;;;;;;;;;;;;;;7.17;65.92;101148.72;4937345;29;20398;-79
2023/01/13 08:03:22;;;;;;;;;;;;;;;7.19;65.27;101151.16;4952432;28;19914;-79
2023/01/13 08:06:07;;;;;;;;;;;;;;;7.31;65.66;101159.72;4952904;28;19918;-79
2023/01/13 08:08:52;;;;;;;;;;;;;;;7.38;65.30;101160.19;4944238;29;20386;-81
2023/01/13 08:11:37;;;;;;;;;;;;;;;7.69;64.57;101155.31;4968675;28;19914;-78
2023/01/13 08:14:21;;;;;;;;;;;;;;;7.96;63.31;101157.50;4957805;28;19915;-79
2023/01/13 08:17:09;;;;;;;;;;;;;;;7.97;64.38;101159.13;4959227;28;19918;-78
2023/01/13 08:19:53;;;;;;;;;;;;;;;7.35;65.63;101155.34;4950661;29;19914;-78
2023/01/13 08:22:38;;;;;;;;;;;;;;;7.56;66.18;101145.19;4973661;28;19914;-78
2023/01/13 08:25:23;;;;;;;;;;;;;;;7.23;67.24;101146.78;4956000;28;20382;-79
2023/01/13 08:28:07;;;;;;;;;;;;;;;6.88;68.96;101155.94;4956095;29;19918;-78
2023/01/13 08:30:53;;;;;;;;;;;;;;;6.66;69.98;101150.94;4956420;28;19914;-78
2023/01/13 08:33:37;;;;;;;;;;;;;;;7.02;69.35;101158.84;4956909;29;19914;-78
2023/01/13 08:36:24;;;;;;;;;;;;;;;7.62;67.50;101138.59;4956129;28;19914;-78
2023/01/13 08:39:09;;;;;;;;;;;;;;;7.27;68.36;101135.13;4957305;28;19914;-79
2023/01/13 08:41:57;;;;;;;;;;;;;;;7.41;67.89;101129.88;4956970;29;19914;-79
2023/01/13 08:44:41;;;;;;;;;;;;;;;7.15;68.64;101133.88;4960633;28;19919;-80
2023/01/13 08:47:27;;;;;;;;;;;;;;;7.29;68.65;101135.66;4958744;28;19918;-80
2023/01/13 08:50:11;;;;;;;;;;;;;;;7.48;67.48;101137.66;4962567;28;19919;-81
2023/01/13 08:52:56;;;;;;;;;;;;;;;7.29;68.56;101132.13;4958662;29;19922;-81
2023/01/13 08:55:40;;;;;;;;;;;;;;;7.29;68.75;101130.25;4968904;28;19914;-80
2023/01/13 08:58:25;;;;;;;;;;;;;;;7.53;69.02;101132.19;4958652;28;20313;-81
2023/01/13 09:01:12;;;;;;;;;;;;;;;7.76;68.36;101139.56;4962680;28;19914;-81
2023/01/13 09:03:56;;;;;;;;;;;;;;;8.05;67.54;101143.06;4974219;28;19918;-81
2023/01/13 09:06:41;;;;;;;;;;;;;;;8.37;66.87;101138.94;4952756;28;19915;-81
2023/01/13 09:09:26;;;;;;;;;;;;;;;8.36;66.09;101138.13;4955607;28;19918;-80
2023/01/13 09:15:20;;;;;;;;;;;;;;;8.56;66.04;101142.47;4939699;29;19919;-79
2023/01/13 09:18:04;;;;;;;;;;;;;;;8.69;65.75;101147.16;4969999;28;20293;-80
2023/01/13 09:20:49;;;;;;;;;;;;;;;8.41;66.76;101150.78;4969190;28;19915;-82
2023/01/13 09:23:33;;;;;;;;;;;;;;;8.49;65.37;101161.78;4959492;29;19915;-82
2023/01/13 09:26:19;;;;;;;;;;;;;;;8.24;66.67;101166.66;4962229;28;20314;-82
2023/01/13 09:29:03;;;;;;;;;;;;;;;8.44;66.63;101167.28;4973810;28;19919;-82
2023/01/13 09:31:48;;;;;;;;;;;;;;;8.35;67.18;101173.63;4960321;29;19940;-82
2023/01/13 09:37:38;;;;;;;;;;;;;;;8.61;66.12;101166.00;4959504;28;19918;-82
2023/01/13 09:40:22;;;;;;;;;;;;;;;8.72;66.66;101151.22;4962249;28;19915;-81
2023/01/13 09:46:45;;;;;;;;;;;;;;;9.04;65.89;101148.56;4958038;28;19914;-81
2023/01/13 09:49:35;;;;;;;;;;;;;;;8.78;66.93;101133.78;4951079;28;19918;-82
2023/01/13 09:52:23;;;;;;;;;;;;;;;8.70;67.03;101137.13;4974650;28;19918;-82
2023/01/13 09:55:14;;;;;;;;;;;;;;;8.79;66.39;101129.94;4968862;28;19922;-81
2023/01/13 09:58:00;;;;;;;;;;;;;;;8.48;67.27;101118.75;4972943;28;19914;-82
2023/01/13 10:00:54;;;;;;;;;;;;;;;8.29;67.95;101124.06;4962296;29;19914;-82
2023/01/13 10:03:38;;;;;;;;;;;;;;;8.12;68.45;101112.91;4956909;28;19915;-82
2023/01/13 10:06:29;;;;;;;;;;;;;;;7.91;69.59;101108.81;4953799;28;20310;-80
2023/01/13 10:09:21;;;;;;;;;;;;;;;8.28;68.71;101111.63;4974400;28;19918;-81
2023/01/13 10:15:19;;;;;;;;;;;;;;;8.44;67.99;101106.84;4976403;28;20509;-83
2023/01/13 10:18:21;;;;;;;;;;;;;;;8.48;67.78;101108.69;4976250;28;19923;-83
2023/01/13 10:21:21;;;;;;;30.05;15.63;;;;;;;9.20;66.49;101103.81;4977339;28;20788;-81
2023/01/13 10:24:53;;;;;;;28.08;14.45;;;;;;;9.37;64.83;101100.56;4942349;29;20507;-82
2023/01/13 10:27:39;;;;;;;28.15;14.23;;;;;;;10.14;60.83;101085.25;4959169;29;20514;-82
2023/01/13 10:30:32;;;;;;;21.17;12.45;;;;;;;10.08;60.60;101081.03;4966372;28;20257;-82
2023/01/13 10:33:23;;;;;;;19.67;12.57;;;;;;;9.82;61.45;101090.78;4973688;28;20055;-82
2023/01/13 10:36:11;;;;;;;25.80;12.73;;;;;;;10.13;60.10;101094.50;4951717;29;20050;-82
2023/01/13 10:39:14;;;;;;;22.40;13.60;;;;;;;9.78;61.43;101087.06;4956656;29;20043;-84
2023/01/13 10:42:05;;;;;;;18.55;12.10;;;;;;;9.28;63.52;101105.88;4950705;29;20407;-86
2023/01/13 10:44:52;;;;;;;21.48;13.10;;;;;;;9.23;63.73;101099.72;4960912;29;20521;-81
2023/01/13 10:47:36;;;;;;;27.33;14.68;;;;;;;9.14;64.28;101085.22;4968032;28;20525;-80
2023/01/13 10:50:27;;;;;;;20.02;11.75;;;;;;;9.32;64.08;101084.38;4963372;28;20047;-81
2023/01/13 10:53:23;;;;;;;41.67;18.83;;;;;;;9.84;64.58;101089.41;4957807;29;20039;-79
2023/01/13 10:56:13;;;;;;;;;;;;;;;10.07;64.72;101087.56;4945361;28;20067;-79
2023/01/13 10:59:21;;;;;;;25.13;14.50;;;;;;;9.72;66.15;101082.81;4941665;29;19918;-79
2023/01/13 11:02:24;;;;;;;45.95;20.05;;;;;;;10.85;65.39;101080.22;4941992;29;20443;-78
2023/01/13 11:05:21;;;;;;;34.72;14.05;;;;;;;12.26;58.90;101068.31;4938866;29;20048;-78
2023/01/13 11:08:18;;;;;;;18.75;13.07;;;;;;;11.86;57.87;101064.03;4952261;29;20039;-80
2023/01/13 11:11:27;;;;;;;21.15;13.52;;;;;;;10.96;60.27;101060.63;4957953;28;20043;-79
2023/01/13 11:14:40;;;;;;;23.13;14.18;;;;;;;10.53;62.02;101056.72;4942813;29;20047;-80
2023/01/13 11:17:39;;;;;;;22.73;14.50;;;;;;;10.17;63.17;101054.78;4945206;29;20035;-79
2023/01/13 11:20:31;;;;;;;21.73;14.18;;;;;;;10.02;64.20;101044.19;4953620;29;20035;-79
2023/01/13 11:23:36;;;;;;;26.65;14.05;;;;;;;9.91;64.86;101044.69;4967710;28;20035;-79
2023/01/13 11:26:26;;;;;;;25.92;14.82;;;;;;;9.85;65.19;101042.09;4975663;28;20046;-80
2023/01/13 11:29:23;;;;;;;26.40;15.98;;;;;;;9.72;65.87;101029.31;4977256;28;20063;-80
2023/01/13 11:32:13;;;;;;;20.90;14.68;;;;;;;9.70;66.56;101047.81;4965278;28;20050;-79
2023/01/13 11:35:13;;;;;;;33.63;17.20;;;;;;;9.73;66.94;101043.72;4967005;29;20046;-79
2023/01/13 11:38:09;;;;;;;25.30;14.20;;;;;;;9.80;66.91;101044.13;4969203;29;20047;-79
2023/01/13 11:40:57;;;;;;;;;;;;;;;9.86;64.55;101032.84;4967878;29;20047;-78
2023/01/13 11:43:49;;;;;;;27.80;11.88;;;;;;;9.80;65.49;101035.97;4952812;29;19914;-79
2023/01/13 11:46:33;;;;;;;16.83;11.65;;;;;;;9.76;64.09;101032.22;4983124;28;20047;-78
2023/01/13 11:49:27;;;;;;;;;;;;;;;9.85;63.18;101031.22;4967455;29;20522;-79
2023/01/13 11:52:43;;;;;;;14.25;8.23;;;;;;;9.95;62.59;101026.72;4968178;28;20305;-80
2023/01/13 11:55:45;;;;;;;24.98;7.72;;;;;;;9.93;61.46;101024.28;4964134;28;20050;-79
2023/01/13 11:59:08;;;;;;;15.15;8.23;;;;;;;9.94;60.63;101027.81;4962265;28;20055;-78
2023/01/13 12:02:21;;;;;;;17.30;8.45;;;;;;;9.96;58.79;101020.16;4959876;28;20055;-78
2023/01/13 12:05:18;;;;;;;23.88;8.55;;;;;;;9.94;59.62;101009.59;4946762;29;20066;-79
2023/01/13 12:08:18;;;;;;;13.52;7.78;;;;;;;9.99;59.71;101014.13;4946438;29;20427;-78
2023/01/13 12:11:09;;;;;;;19.08;8.90;;;;;;;10.03;60.24;101015.94;4963507;28;20078;-79
2023/01/13 12:13:57;;;;;;;17.30;8.60;;;;;;;10.02;60.45;101010.78;4959955;28;20051;-82
2023/01/13 12:16:48;;;;;;;15.98;6.88;;;;;;;10.04;60.22;101003.97;4957951;28;20050;-82
2023/01/13 12:19:33;;;;;;;20.35;8.07;;;;;;;10.03;60.19;101002.34;4958220;29;20420;-82
2023/01/13 12:22:31;;;;;;;22.70;8.63;;;;;;;10.08;60.87;100996.81;4954425;29;20043;-82
2023/01/13 12:25:31;;;;;;;18.10;7.40;;;;;;;10.05;60.28;101000.16;4974419;28;20062;-84
2023/01/13 12:28:23;;;;;;;11.98;6.45;;;;;;;10.13;60.18;100996.69;4958343;29;20040;-84
2023/01/13 12:31:09;;;;;;;14.60;6.28;;;;;;;10.22;59.97;100986.72;4976795;28;20403;-83
2023/01/13 12:34:20;;;;;;;14.43;6.90;;;;;;;10.33;59.14;100978.34;4952713;28;20423;-84
2023/01/13 12:37:33;;;;;;;18.70;6.93;;;;;;;10.34;58.93;100974.53;4978518;28;20035;-85
2023/01/13 12:40:32;;;;;;;11.05;5.72;;;;;;;10.34;58.50;100969.91;4997791;28;20065;-86
2023/01/13 12:46:24;;;;;;;11.57;6.05;;;;;;;10.44;57.84;100971.56;4988321;28;20041;-86
2023/01/13 12:49:21;;;;;;;7.38;5.03;;;;;;;10.38;57.06;100956.47;4959982;29;20030;-86
2023/01/13 12:52:06;;;;;;;11.48;6.53;;;;;;;10.36;56.80;100961.44;4954698;28;20121;-84
2023/01/13 12:54:52;;;;;;;11.63;6.03;;;;;;;10.40;56.38;100963.25;4975289;28;20061;-85
2023/01/13 12:57:39;;;;;;;12.60;6.45;;;;;;;10.42;55.43;100952.03;4973505;28;20062;-84
2023/01/13 13:00:50;;;;;;;22.08;11.00;;;;;;;10.36;55.99;100953.28;4976911;28;20046;-84
2023/01/13 13:03:35;;;;;;;14.27;6.80;;;;;;;10.37;56.23;100941.28;4965617;28;20601;-83
2023/01/13 13:06:22;;;;;;;12.43;5.95;;;;;;;10.44;56.62;100936.22;4975935;28;20062;-84
2023/01/13 13:09:22;;;;;;;59.33;22.30;;;;;;;10.50;56.32;100935.81;4957623;29;20051;-83
2023/01/13 13:15:49;;;;;;;46.50;20.83;;;;;;;10.54;56.03;100933.25;4954574;28;20031;-83
2023/01/13 13:18:34;;;;;;;17.00;9.45;;;;;;;10.58;56.10;100939.69;4956859;29;20055;-85
2023/01/13 13:21:19;;;;;;;17.60;8.55;;;;;;;10.63;55.82;100928.69;4949615;29;20051;-84
2023/01/13 13:24:09;;;;;;;12.35;5.72;;;;;;;10.67;56.20;100935.09;4955264;29;20411;-84
2023/01/13 13:26:54;;;;;;;;;;;;;;;10.68;55.92;100931.28;4966674;28;20043;-82
2023/01/13 13:29:54;;;;;;;;;;;;;;;10.69;55.75;100938.31;4938979;29;19918;-82
2023/01/13 13:32:41;;;;;;;;;;;;;;;10.70;56.10;100945.38;4938693;29;20262;-81
2023/01/13 13:35:50;;;;;;;;;;;;;;;10.72;55.91;100934.97;4960954;28;19918;-81
2023/01/13 13:48:17;;;;;;;;;;;;;;;10.75;55.07;100928.94;4965704;28;20286;-82
2023/01/13 13:51:15;;;;;;;;;;;;;;;10.79;55.11;100935.34;4961737;29;19919;-81
2023/01/13 13:54:01;;;;;;;;;;;;;;;10.89;54.74;100932.38;4961279;29;19915;-82
2023/01/13 13:56:46;;;;;;;;;;;;;;;10.90;54.97;100925.00;4963160;28;20391;-82
2023/01/13 13:59:32;;;;;;;;;;;;;;;10.88;54.83;100913.63;4963345;28;20112;-81
2023/01/13 14:02:27;;;;;;;;;;;;;;;10.98;54.36;100914.16;4961177;29;19914;-81
2023/01/13 14:05:17;;;;;;;;;;;;;;;10.98;55.07;100919.59;4961119;29;20378;-82
2023/01/13 14:08:09;;;;;;;;;;;;;;;11.09;54.83;100903.81;4962398;28;19914;-82
2023/01/13 14:10:53;;;;;;;;;;;;;;;11.22;54.63;100908.38;4961041;29;20382;-81
2023/01/13 14:13:38;;;;;;;;;;;;;;;11.41;53.98;100925.25;4964372;28;19919;-82
2023/01/13 14:16:22;;;;;;;;;;;;;;;11.52;53.28;100923.03;4960849;28;19915;-82
2023/01/13 14:19:23;;;;;;;;;;;;;;;11.54;53.23;100929.75;4960953;28;19915;-83
2023/01/13 14:22:15;;;;;;;;;;;;;;;11.59;52.59;100934.25;4975757;28;19914;-82
2023/01/13 14:25:00;;;;;;;;;;;;;;;11.75;52.19;100932.72;4977681;28;19914;-81
2023/01/13 14:27:45;;;;;;;;;;;;;;;11.85;51.74;100937.06;4964399;28;19914;-82
2023/01/13 14:30:30;;;;;;;;;;;;;;;11.95;51.94;100936.75;4960831;29;19918;-82
2023/01/13 14:33:16;;;;;;;;;;;;;;;11.91;52.23;100936.59;4961313;29;19914;-82
2023/01/13 14:36:06;;;;;;;;;;;;;;;11.98;53.16;100936.94;4978564;28;19915;-83
2023/01/13 14:39:02;;;;;;;;;;;;;;;12.08;53.57;100945.94;4963770;28;19918;-82
2023/01/13 14:41:49;;;;;;;;;;;;;;;12.12;54.45;100952.34;4961330;29;19915;-83
2023/01/13 14:44:35;;;;;;;;;;;;;;;12.24;54.79;100947.84;4964135;28;19915;-82
2023/01/13 14:47:27;;;;;;;;;;;;;;;12.21;55.15;100955.88;4960931;28;19914;-82
2023/01/13 14:50:27;;;;;;;;;;;;;;;12.18;55.78;100951.88;4945998;29;19918;-82
2023/01/13 14:53:26;;;;;;;;;;;;;;;12.24;55.47;100947.06;4961022;29;19914;-83
2023/01/13 14:56:30;;;;;;;;;;;;;;;12.23;55.60;100946.25;4963892;28;19914;-82
2023/01/13 14:59:33;;;;;;;;;;;;;;;12.21;55.25;100951.22;4961139;29;19914;-82
2023/01/13 15:02:23;;;;;;;;;;;;;;;12.16;55.46;100953.28;4960710;29;20305;-82
2023/01/13 15:05:23;;;;;;;;;;;;;;;12.19;55.66;100948.00;4966505;28;19914;-82
2023/01/13 15:08:12;;;;;;;;;;;;;;;12.21;55.59;100939.50;4961332;29;20390;-82
2023/01/13 15:11:00;;;;;;;;;;;;;;;12.17;55.66;100944.00;4960739;29;19918;-82
2023/01/13 15:13:46;;;;;;;;;;;;;;;12.14;55.86;100939.19;4963607;28;19914;-82
2023/01/13 15:16:30;;;;;;;;;;;;;;;12.19;55.52;100939.03;4962063;28;19926;-82